Time;durP1;ratioP1;P1;durP2;ratioP2;P2;SDS_P1;SDS_P2;PMS_P1;PMS_P2;Temp;Humidity;BMP_temperature;BMP_pressure;BME280_temperature;BME280_humidity;BME280_pressure;Samples;Min_cycle;Max_cycle;Signal;HPM_P1;HPM_P2
2021/04/15 00:00:00;;;;;;;9.07;7.60;;;;;;;0.85;66.70;96300.47;4954377;28;20035;-65
2021/04/15 00:02:26;;;;;;;9.88;8.98;;;;;;;0.81;66.62;96287.72;4958610;28;20168;-66
2021/04/15 00:04:51;;;;;;;12.27;11.13;;;;;;;0.85;66.75;96284.94;4958030;28;20546;-66
2021/04/15 00:07:17;;;;;;;13.65;12.32;;;;;;;0.95;66.80;96287.09;4957997;28;20103;-66
2021/04/15 00:09:43;;;;;;;14.20;12.80;;;;;;;0.82;67.10;96292.84;4952244;28;20023;-66
2021/04/15 00:12:08;;;;;;;10.93;9.00;;;;;;;0.84;66.65;96288.44;4949012;28;20074;-66
2021/04/15 00:14:34;;;;;;;9.13;8.32;;;;;;;0.83;66.50;96291.06;4958775;28;20121;-65
2021/04/15 00:16:59;;;;;;;8.43;7.63;;;;;;;0.80;66.88;96284.28;4952359;28;20035;-64
2021/04/15 00:19:25;;;;;;;7.32;6.72;;;;;;;0.81;65.87;96285.13;4956386;28;20519;-64
2021/04/15 00:21:50;;;;;;;7.35;6.70;;;;;;;0.75;66.13;96277.63;4953659;28;20024;-65
2021/04/15 00:24:16;;;;;;;7.65;6.90;;;;;;;0.74;66.13;96275.94;4949310;28;20035;-65
2021/04/15 00:26:43;;;;;;;7.85;6.72;;;;;;;0.77;66.20;96276.63;4947915;28;20547;-65
2021/04/15 00:29:08;;;;;;;8.30;7.40;;;;;;;0.74;67.77;96275.94;4957734;28;20039;-65
2021/04/15 00:31:34;;;;;;;8.57;7.78;;;;;;;0.70;66.81;96273.50;4957506;28;20384;-65
2021/04/15 00:34:00;;;;;;;8.40;7.70;;;;;;;0.67;66.92;96267.59;4957133;28;20031;-65
2021/04/15 00:36:26;;;;;;;7.95;7.25;;;;;;;0.66;67.23;96268.50;4957461;28;20082;-65
2021/04/15 00:38:52;;;;;;;8.10;7.32;;;;;;;0.64;66.75;96265.13;4952249;28;20050;-65
2021/04/15 00:41:18;;;;;;;7.95;6.43;;;;;;;0.65;66.72;96261.63;4958001;28;20106;-65
2021/04/15 00:43:46;;;;;;;8.98;6.18;;;;;;;0.65;66.62;96261.63;4950230;28;20032;-65
2021/04/15 00:46:36;;;;;;;6.95;6.35;;;;;;;0.66;67.37;96255.53;4953608;28;20034;-65
2021/04/15 00:49:02;;;;;;;7.68;6.97;;;;;;;0.68;66.96;96253.72;4954881;28;20039;-65
2021/04/15 00:51:30;;;;;;;8.52;6.82;;;;;;;0.71;66.74;96251.00;4951704;28;20048;-65
2021/04/15 00:54:04;;;;;;;7.53;6.80;;;;;;;0.74;66.74;96248.25;4962619;28;20039;-65
2021/04/15 00:56:30;;;;;;;7.45;6.25;;;;;;;0.76;66.58;96249.03;4949091;28;20031;-65
2021/04/15 00:58:56;;;;;;;9.07;7.07;;;;;;;0.83;66.13;96250.47;4959054;28;20027;-65
2021/04/15 01:01:22;;;;;;;7.05;6.35;;;;;;;0.79;66.00;96248.06;4969911;28;20061;-65
2021/04/15 01:03:48;;;;;;;7.13;6.05;;;;;;;0.73;66.34;96251.75;4960976;28;20059;-65
2021/04/15 01:06:14;;;;;;;7.35;6.75;;;;;;;0.71;66.36;96240.63;4955801;28;20031;-65
2021/04/15 01:08:40;;;;;;;8.00;7.30;;;;;;;0.82;66.05;96242.72;4955906;28;20027;-65
2021/04/15 01:11:21;;;;;;;8.15;6.93;;;;;;;0.68;66.59;96240.75;4968386;28;20098;-65
2021/04/15 01:14:26;;;;;;;6.80;6.18;;;;;;;0.70;66.30;96244.13;4956687;28;20023;-65
2021/04/15 01:17:15;;;;;;;7.40;6.28;;;;;;;0.66;66.36;96238.25;4960601;28;20110;-65
2021/04/15 01:20:08;;;;;;;7.28;6.53;;;;;;;0.67;66.82;96234.75;4950233;28;20110;-64
2021/04/15 01:23:13;;;;;;;7.15;6.55;;;;;;;0.68;66.58;96241.63;4952264;28;20020;-65
2021/04/15 01:26:09;;;;;;;6.32;5.93;;;;;;;0.63;67.19;96238.34;4960580;28;20019;-65
2021/04/15 01:28:37;;;;;;;7.18;6.47;;;;;;;0.65;66.46;96235.72;4958246;28;20158;-65
2021/04/15 01:31:11;;;;;;;7.35;6.70;;;;;;;0.74;65.78;96234.47;4969199;28;20055;-67
2021/04/15 01:33:59;;;;;;;8.93;6.93;;;;;;;0.47;67.30;96238.19;4961240;28;20503;-67
2021/04/15 01:36:33;;;;;;;14.82;8.88;;;;;;;0.12;68.94;96243.16;4959666;28;20035;-67
2021/04/15 01:39:21;;;;;;;8.70;7.80;;;;;;;-0.10;70.14;96241.44;4964790;28;20035;-66
2021/04/15 01:42:16;;;;;;;8.80;7.95;;;;;;;-0.18;70.42;96240.91;4960985;28;20490;-66
2021/04/15 01:44:54;;;;;;;11.32;10.25;;;;;;;-0.20;71.43;96245.28;4954858;28;20136;-65
2021/04/15 01:47:25;;;;;;;9.27;8.38;;;;;;;-0.20;70.59;96247.88;4953482;28;20034;-66
2021/04/15 01:49:58;;;;;;;8.85;7.95;;;;;;;-0.19;69.97;96255.59;4947233;28;20044;-65
2021/04/15 01:52:26;;;;;;;8.73;7.90;;;;;;;-0.26;70.86;96248.13;4955914;28;20050;-64
2021/04/15 01:55:21;;;;;;;8.75;7.88;;;;;;;-0.27;70.23;96249.03;4955652;28;20032;-65
2021/04/15 01:58:00;;;;;;;9.98;7.65;;;;;;;-0.24;70.80;96244.56;4960613;28;20051;-65
2021/04/15 02:00:29;;;;;;;8.63;7.00;;;;;;;-0.16;70.09;96242.53;4957835;28;20391;-65
2021/04/15 02:03:19;;;;;;;7.95;6.55;;;;;;;-0.11;71.19;96246.66;4952326;28;20015;-64
2021/04/15 02:05:49;;;;;;;7.18;6.47;;;;;;;-0.10;70.58;96238.00;4955349;28;20027;-65
2021/04/15 02:08:21;;;;;;;9.52;6.55;;;;;;;-0.10;70.23;96244.03;4946668;28;20132;-65
2021/04/15 02:10:51;;;;;;;7.35;6.78;;;;;;;-0.11;70.84;96246.66;4959016;28;20031;-65
2021/04/15 02:13:18;;;;;;;6.90;6.28;;;;;;;-0.04;69.87;96237.75;4957905;28;20466;-65
2021/04/15 02:15:51;;;;;;;7.47;6.88;;;;;;;0.03;69.80;96239.19;4947596;28;20035;-65
2021/04/15 02:18:24;;;;;;;7.20;6.60;;;;;;;0.03;70.00;96240.91;4953814;28;20037;-65
2021/04/15 02:20:54;;;;;;;7.05;6.55;;;;;;;0.02;69.56;96252.19;4956616;28;20110;-65
2021/04/15 02:23:47;;;;;;;7.22;6.63;;;;;;;0.02;69.69;96236.66;4959552;28;20023;-65
2021/04/15 02:26:26;;;;;;;7.50;6.63;;;;;;;-0.19;70.39;96239.22;4952374;28;20027;-65
2021/04/15 02:29:14;;;;;;;8.43;6.35;;;;;;;-0.33;70.66;96239.78;4959690;28;20570;-65
2021/04/15 02:32:00;;;;;;;6.80;6.30;;;;;;;-0.36;70.70;96250.25;4959416;28;20031;-65
2021/04/15 02:34:46;;;;;;;6.90;6.25;;;;;;;-0.29;70.01;96254.28;4959649;28;20115;-65
2021/04/15 02:37:19;;;;;;;6.90;5.88;;;;;;;-0.33;70.13;96253.56;4961031;28;20438;-65
2021/04/15 02:39:50;;;;;;;7.22;6.53;;;;;;;-0.39;70.38;96253.78;4956398;28;20031;-65
2021/04/15 02:42:26;;;;;;;7.45;6.57;;;;;;;-0.45;70.83;96249.69;4955010;28;20019;-65
2021/04/15 02:44:59;;;;;;;7.35;6.63;;;;;;;-0.50;70.71;96255.97;4952150;28;20094;-67
2021/04/15 02:47:37;;;;;;;8.70;7.10;;;;;;;-0.56;71.99;96243.25;4954218;28;20031;-65
2021/04/15 02:50:06;;;;;;;8.55;7.07;;;;;;;-0.69;72.52;96248.06;4945153;28;20055;-65
2021/04/15 02:52:38;;;;;;;8.65;7.75;;;;;;;-0.73;72.83;96247.38;4958873;28;20027;-66
2021/04/15 02:55:11;;;;;;;9.63;8.55;;;;;;;-0.77;72.70;96248.38;4963611;28;20023;-66
2021/04/15 02:57:43;;;;;;;9.05;8.15;;;;;;;-0.79;72.54;96240.69;4954818;28;20502;-66
2021/04/15 03:00:11;;;;;;;10.77;9.73;;;;;;;-0.88;73.93;96246.22;4957697;28;20431;-66
2021/04/15 03:02:56;;;;;;;10.38;9.48;;;;;;;-0.90;73.33;96237.66;4956062;28;20028;-67
2021/04/15 03:05:24;;;;;;;11.15;10.05;;;;;;;-0.93;74.09;96240.34;4950013;28;20110;-67
2021/04/15 03:07:54;;;;;;;10.73;9.60;;;;;;;-0.95;73.52;96237.84;4958324;28;20549;-67
2021/04/15 03:10:26;;;;;;;17.45;9.93;;;;;;;-0.92;72.57;96234.28;4957229;28;20015;-67
2021/04/15 03:12:58;;;;;;;10.88;9.40;;;;;;;-0.92;73.60;96226.53;4953574;28;20118;-66
2021/04/15 03:15:28;;;;;;;10.30;9.05;;;;;;;-0.92;73.34;96236.88;4955647;28;20053;-67
2021/04/15 03:18:00;;;;;;;12.80;11.50;;;;;;;-1.02;74.25;96226.03;4956450;28;20411;-67
2021/04/15 03:21:08;;;;;;;16.60;12.18;;;;;;;-1.05;74.25;96226.16;4957401;28;20034;-66
2021/04/15 03:23:50;;;;;;;11.82;10.63;;;;;;;-0.87;72.70;96224.63;4959345;28;20019;-65
2021/04/15 03:26:27;;;;;;;10.93;9.20;;;;;;;-0.98;73.14;96230.22;4953566;28;20102;-67
2021/04/15 03:29:16;;;;;;;13.10;9.00;;;;;;;-1.13;74.15;96236.75;4948748;28;20023;-66
2021/04/15 03:31:48;;;;;;;14.40;10.10;;;;;;;-0.90;72.53;96233.34;4943619;28;20504;-67
2021/04/15 03:34:36;;;;;;;13.45;10.95;;;;;;;-1.05;73.34;96233.91;4953509;28;20480;-66
2021/04/15 03:37:02;;;;;;;13.55;9.93;;;;;;;-1.24;74.66;96233.75;4953749;28;20033;-66
2021/04/15 03:39:35;;;;;;;11.15;9.52;;;;;;;-1.33;74.83;96232.34;4958873;28;20028;-67
2021/04/15 03:42:12;;;;;;;11.75;9.48;;;;;;;-1.43;76.45;96239.56;4956830;28;20038;-67
2021/04/15 03:44:44;;;;;;;12.48;9.35;;;;;;;-1.40;74.73;96243.81;4955078;28;20023;-67
2021/04/15 03:47:18;;;;;;;11.98;10.68;;;;;;;-1.35;74.19;96242.72;4957289;28;20483;-65
2021/04/15 03:50:14;;;;;;;19.30;12.75;;;;;;;-1.35;74.60;96236.72;4950118;28;20101;-67
2021/04/15 03:52:44;;;;;;;13.00;11.70;;;;;;;-1.32;73.97;96234.03;4948464;28;20123;-66
2021/04/15 03:55:22;;;;;;;12.50;11.02;;;;;;;-1.34;74.71;96235.81;4946619;28;20118;-67
2021/04/15 03:57:51;;;;;;;14.32;11.10;;;;;;;-1.35;74.37;96236.72;4955054;28;20772;-65
2021/04/15 04:00:24;;;;;;;14.88;11.27;;;;;;;-1.37;74.51;96229.00;4953248;28;20082;-65
2021/04/15 04:02:55;;;;;;;11.77;10.57;;;;;;;-1.38;74.23;96229.09;4952176;28;20027;-67
2021/04/15 04:05:34;;;;;;;11.18;10.07;;;;;;;-1.37;75.73;96228.19;4951786;28;20054;-67
2021/04/15 04:08:03;;;;;;;11.60;9.35;;;;;;;-1.32;74.45;96232.31;4952711;28;20023;-66
2021/04/15 04:10:42;;;;;;;11.30;10.15;;;;;;;-1.35;74.69;96226.38;4954972;28;20035;-66
2021/04/15 04:13:43;;;;;;;10.60;9.13;;;;;;;-1.41;74.89;96222.28;4951803;28;20042;-67
2021/04/15 04:16:22;;;;;;;11.50;8.60;;;;;;;-1.45;75.29;96221.53;4958506;28;20034;-66
2021/04/15 04:19:03;;;;;;;9.73;8.82;;;;;;;-1.41;75.12;96224.03;4953023;28;20036;-67
2021/04/15 04:21:29;;;;;;;9.73;8.75;;;;;;;-1.35;74.19;96221.22;4951042;28;20485;-67
2021/04/15 04:24:29;;;;;;;10.10;9.13;;;;;;;-1.41;75.28;96226.63;4957496;28;20023;-67
2021/04/15 04:27:03;;;;;;;8.90;8.10;;;;;;;-1.44;74.78;96227.56;4956627;28;20039;-67
2021/04/15 04:29:32;;;;;;;9.75;8.68;;;;;;;-1.47;74.92;96231.09;4954738;28;20027;-65
2021/04/15 04:32:01;;;;;;;10.85;8.85;;;;;;;-1.41;74.05;96224.88;4957668;28;20035;-67
2021/04/15 04:34:29;;;;;;;10.80;9.68;;;;;;;-1.50;75.05;96228.63;4951192;28;20030;-67
2021/04/15 04:36:56;;;;;;;14.60;13.07;;;;;;;-1.64;76.68;96228.28;4948942;28;20031;-67
2021/04/15 04:39:26;;;;;;;16.75;12.73;;;;;;;-1.70;76.93;96231.06;4955761;28;20031;-65
2021/04/15 04:42:15;;;;;;;18.10;13.00;;;;;;;-1.69;76.16;96227.56;4949265;28;20024;-67
2021/04/15 04:44:53;;;;;;;14.43;13.02;;;;;;;-1.64;75.87;96217.94;4953134;28;20342;-67
2021/04/15 04:47:43;;;;;;;14.30;13.00;;;;;;;-1.61;76.00;96213.50;4950534;28;20614;-65
2021/04/15 04:50:24;;;;;;;16.52;13.38;;;;;;;-1.71;77.63;96217.31;4950959;28;20055;-67
2021/04/15 04:53:06;;;;;;;16.55;13.80;;;;;;;-1.66;76.19;96220.56;4952302;28;20039;-67
2021/04/15 04:56:01;;;;;;;16.33;14.50;;;;;;;-1.53;74.59;96213.22;4957899;28;20118;-67
2021/04/15 04:58:26;;;;;;;17.83;15.82;;;;;;;-1.61;75.84;96215.25;4958049;28;20054;-67
2021/04/15 05:00:56;;;;;;;16.60;14.95;;;;;;;-1.72;76.49;96220.81;4947591;28;20034;-67
2021/04/15 05:03:24;;;;;;;21.25;16.23;;;;;;;-1.76;77.78;96222.63;4953945;28;20027;-67
2021/04/15 05:06:05;;;;;;;21.35;18.75;;;;;;;-1.79;77.86;96227.06;4951310;28;20032;-67
2021/04/15 05:08:50;;;;;;;20.50;17.70;;;;;;;-1.76;77.15;96214.06;4947256;28;20084;-67
2021/04/15 05:11:16;;;;;;;21.17;19.05;;;;;;;-1.66;76.23;96212.84;4940486;28;20032;-67
2021/04/15 05:13:42;;;;;;;26.48;22.23;;;;;;;-1.59;75.76;96216.03;4943262;28;20117;-67
2021/04/15 05:16:08;;;;;;;20.63;17.17;;;;;;;-1.53;75.58;96228.72;4948014;28;20396;-67
2021/04/15 05:18:33;;;;;;;14.98;13.43;;;;;;;-1.46;74.79;96224.19;4952922;28;20043;-66
2021/04/15 05:21:11;;;;;;;19.48;15.15;;;;;;;-1.45;75.60;96221.53;4960221;28;20081;-66
2021/04/15 05:23:43;;;;;;;17.45;15.35;;;;;;;-1.47;76.47;96220.75;4951996;28;20083;-67
2021/04/15 05:26:17;;;;;;;18.13;16.30;;;;;;;-1.49;75.94;96225.13;4954160;28;20476;-66
2021/04/15 05:28:46;;;;;;;18.55;15.25;;;;;;;-1.47;76.02;96225.09;4953521;28;20027;-66
2021/04/15 05:31:15;;;;;;;16.40;14.70;;;;;;;-1.52;76.24;96238.16;4949667;28;20032;-67
2021/04/15 05:33:41;;;;;;;18.35;16.40;;;;;;;-1.52;76.09;96235.56;4945664;28;20038;-66
2021/04/15 05:36:10;;;;;;;17.85;16.10;;;;;;;-1.50;76.26;96243.28;4948178;28;20027;-66
2021/04/15 05:38:43;;;;;;;16.30;14.68;;;;;;;-1.49;76.45;96240.63;4947234;28;20399;-65
2021/04/15 05:41:20;;;;;;;14.32;12.88;;;;;;;-1.43;75.53;96243.91;4955195;28;20031;-66
2021/04/15 05:43:49;;;;;;;14.05;12.48;;;;;;;-1.41;76.32;96244.69;4953594;28;20094;-66
2021/04/15 05:46:40;;;;;;;14.40;11.13;;;;;;;-1.45;76.93;96252.53;4957701;28;20035;-66
2021/04/15 05:49:06;;;;;;;12.63;11.32;;;;;;;-1.44;76.56;96243.06;4963454;28;20118;-66
2021/04/15 05:51:41;;;;;;;12.95;11.65;;;;;;;-1.46;77.23;96248.25;4958406;28;20043;-66
2021/04/15 05:54:12;;;;;;;19.38;11.35;;;;;;;-1.33;76.48;96253.00;4960605;28;20050;-66
2021/04/15 05:57:10;;;;;;;12.98;11.65;;;;;;;-1.23;75.84;96241.44;4959885;28;20439;-66
2021/04/15 05:59:38;;;;;;;12.18;9.95;;;;;;;-1.13;74.79;96256.63;4946174;28;20098;-66
2021/04/15 06:02:06;;;;;;;12.15;10.95;;;;;;;-1.06;75.54;96255.47;4952649;28;20034;-67
2021/04/15 06:04:38;;;;;;;14.15;12.75;;;;;;;-1.00;74.42;96250.06;4950521;28;20040;-66
2021/04/15 06:07:06;;;;;;;17.02;13.27;;;;;;;-0.94;73.96;96255.03;4956652;28;20062;-67
2021/04/15 06:09:31;;;;;;;14.77;13.20;;;;;;;-0.90;73.88;96259.19;4958692;28;20042;-65
2021/04/15 06:12:15;;;;;;;14.60;13.07;;;;;;;-0.85;74.38;96258.16;4956603;28;20045;-67
2021/04/15 06:14:57;;;;;;;14.70;13.15;;;;;;;-0.84;75.76;96252.09;4957035;28;20039;-68
2021/04/15 06:17:29;;;;;;;14.05;12.57;;;;;;;-0.84;75.28;96254.69;4953731;28;20039;-67
2021/04/15 06:20:06;;;;;;;16.73;12.73;;;;;;;-0.85;74.57;96259.03;4953092;28;20106;-67
2021/04/15 06:22:36;;;;;;;13.65;11.95;;;;;;;-0.79;74.61;96255.34;4958146;28;20026;-67
2021/04/15 06:25:06;;;;;;;12.80;11.50;;;;;;;-0.70;74.16;96255.00;4953362;28;20034;-64
2021/04/15 06:27:32;;;;;;;12.90;11.55;;;;;;;-0.44;72.82;96255.72;4946786;28;20038;-71
2021/04/15 06:30:21;;;;;;;12.98;11.68;;;;;;;0.32;71.33;96257.84;4961027;28;20031;-67
2021/04/15 06:32:53;;;;;;;13.00;11.40;;;;;;;1.39;67.82;96258.31;4946868;28;20540;-66
2021/04/15 06:35:28;;;;;;;12.82;9.52;;;;;;;2.34;64.46;96242.53;4957829;28;20110;-64
2021/04/15 06:38:07;;;;;;;17.75;10.13;;;;;;;2.95;61.99;96245.47;4959073;28;20023;-63
2021/04/15 06:40:57;;;;;;;10.98;8.20;;;;;;;3.40;60.81;96246.50;4954724;28;20027;-64
2021/04/15 06:43:40;;;;;;;16.02;9.93;;;;;;;4.28;58.92;96252.94;4953495;28;20094;-65
2021/04/15 06:46:15;;;;;;;30.52;16.70;;;;;;;4.90;57.78;96257.13;4956296;28;20525;-64
2021/04/15 06:49:18;;;;;;;20.00;13.60;;;;;;;5.62;52.52;96244.91;4955545;28;20035;-65
2021/04/15 06:52:21;;;;;;;11.95;6.60;;;;;;;6.34;49.47;96244.63;4963802;28;20051;-64
2021/04/15 06:55:11;;;;;;;9.98;9.05;;;;;;;6.69;48.57;96235.34;4954133;28;20122;-64
2021/04/15 06:58:01;;;;;;;7.50;6.75;;;;;;;6.85;47.02;96240.38;4956821;28;20051;-65
2021/04/15 07:00:54;;;;;;;8.02;7.25;;;;;;;6.86;46.85;96232.41;4952454;28;20031;-65
2021/04/15 07:03:50;;;;;;;9.32;8.43;;;;;;;7.32;47.37;96238.00;4953551;28;20026;-64
2021/04/15 07:06:33;;;;;;;10.38;7.03;;;;;;;7.60;46.50;96230.81;4944669;28;20059;-64
2021/04/15 07:09:12;;;;;;;7.97;7.20;;;;;;;8.08;46.01;96237.84;4956985;28;20031;-64
2021/04/15 07:11:37;;;;;;;8.77;6.90;;;;;;;8.17;43.79;96234.53;4947198;28;20689;-64
2021/04/15 07:14:24;;;;;;;8.25;6.38;;;;;;;8.66;42.71;96225.75;4940433;28;20040;-64
2021/04/15 07:16:59;;;;;;;7.40;5.82;;;;;;;8.88;41.46;96230.19;4953808;28;20054;-64
2021/04/15 07:19:24;;;;;;;6.68;6.00;;;;;;;9.29;42.22;96220.03;4951731;28;20473;-64
2021/04/15 07:22:08;;;;;;;7.70;6.25;;;;;;;9.42;41.11;96220.75;4953479;28;20023;-64
2021/04/15 07:24:42;;;;;;;7.10;6.40;;;;;;;9.23;40.34;96221.34;4947161;28;20051;-64
2021/04/15 07:27:32;;;;;;;7.10;6.40;;;;;;;9.46;40.72;96214.28;4953370;28;20027;-64
2021/04/15 07:30:23;;;;;;;7.10;5.55;;;;;;;9.80;38.83;96213.38;4957037;28;20089;-64
2021/04/15 07:33:09;;;;;;;5.95;5.35;;;;;;;10.01;38.58;96205.50;4955588;28;20032;-64
2021/04/15 07:35:58;;;;;;;6.45;5.75;;;;;;;10.25;38.99;96203.63;4954752;28;20114;-64
2021/04/15 07:38:39;;;;;;;9.73;5.47;;;;;;;10.34;36.93;96205.47;4954019;28;20113;-64
2021/04/15 07:41:05;;;;;;;6.05;5.47;;;;;;;10.41;36.80;96201.44;4954431;28;20042;-64
2021/04/15 07:43:30;;;;;;;6.00;5.50;;;;;;;10.67;37.76;96206.28;4946865;28;20496;-64
2021/04/15 07:46:25;;;;;;;5.63;4.95;;;;;;;10.64;36.18;96197.81;4957578;28;20114;-64
2021/04/15 07:49:16;;;;;;;8.20;5.38;;;;;;;10.95;36.11;96197.84;4956416;28;20110;-63
2021/04/15 07:52:19;;;;;;;6.22;5.63;;;;;;;10.95;36.11;96190.75;4954793;28;20647;-64
2021/04/15 07:55:13;;;;;;;7.80;5.88;;;;;;;11.17;34.26;96194.19;4953461;28;20027;-64
2021/04/15 07:57:56;;;;;;;7.45;5.70;;;;;;;11.90;33.04;96193.09;4959397;28;20027;-64
2021/04/15 08:00:50;;;;;;;7.75;6.15;;;;;;;11.49;32.76;96193.16;4951875;28;20043;-64
2021/04/15 08:03:30;;;;;;;7.00;5.90;;;;;;;11.79;33.56;96191.41;4955078;28;20021;-64
2021/04/15 08:06:43;;;;;;;7.38;6.30;;;;;;;11.48;33.63;96198.56;4951793;28;20054;-64
2021/04/15 08:09:19;;;;;;;6.80;6.00;;;;;;;11.43;33.68;96186.63;4956245;28;20046;-64
2021/04/15 08:12:10;;;;;;;6.75;6.18;;;;;;;11.74;33.67;96189.19;4954836;28;20031;-64
2021/04/15 08:14:35;;;;;;;6.10;5.50;;;;;;;12.04;33.24;96187.41;4956683;28;20062;-64
2021/04/15 08:17:32;;;;;;;6.75;5.60;;;;;;;12.65;31.37;96192.50;4956757;28;20082;-63
2021/04/15 08:20:13;;;;;;;6.78;6.07;;;;;;;12.39;33.61;96187.84;4954087;28;20031;-64
2021/04/15 08:23:00;;;;;;;11.02;6.15;;;;;;;12.21;32.31;96190.34;4944182;28;20075;-64
2021/04/15 08:25:28;;;;;;;6.40;5.80;;;;;;;11.99;31.78;96186.97;4955476;28;20033;-64
2021/04/15 08:28:20;;;;;;;7.15;5.70;;;;;;;12.40;30.66;96189.50;4957206;28;20824;-65
2021/04/15 08:31:21;;;;;;;5.88;5.38;;;;;;;12.25;31.71;96194.34;4955108;28;20034;-63
2021/04/15 08:34:10;;;;;;;5.90;5.25;;;;;;;12.66;30.69;96193.31;4950296;28;20417;-64
2021/04/15 08:37:00;;;;;;;6.15;5.53;;;;;;;13.03;31.03;96197.81;4951313;28;20078;-64
2021/04/15 08:39:29;;;;;;;6.03;5.53;;;;;;;12.63;30.30;96202.38;4953503;28;20029;-64
2021/04/15 08:42:10;;;;;;;7.97;6.60;;;;;;;13.11;30.75;96191.81;4947936;28;20032;-64
2021/04/15 08:44:46;;;;;;;7.60;6.07;;;;;;;13.27;30.30;96199.09;4954233;28;20076;-64
2021/04/15 08:47:49;;;;;;;7.45;6.40;;;;;;;13.11;31.09;96202.38;4945323;28;20040;-64
2021/04/15 08:50:29;;;;;;;7.65;6.88;;;;;;;12.82;30.97;96198.84;4950531;28;20055;-64
2021/04/15 08:53:32;;;;;;;7.35;6.65;;;;;;;12.41;31.28;96214.09;4950014;28;20377;-63
2021/04/15 08:56:05;;;;;;;11.00;6.50;;;;;;;13.29;30.94;96207.72;4947827;28;20476;-63
2021/04/15 08:59:05;;;;;;;9.80;6.75;;;;;;;13.13;31.22;96205.72;4958327;28;20030;-64
2021/04/15 09:01:44;;;;;;;6.65;5.75;;;;;;;13.39;29.00;96208.53;4950379;28;20027;-64
2021/04/15 09:04:15;;;;;;;7.57;6.22;;;;;;;12.88;30.21;96197.44;4948659;28;20031;-64
2021/04/15 09:07:10;;;;;;;12.00;6.22;;;;;;;13.16;31.06;96197.47;4940704;28;20027;-63
2021/04/15 09:10:14;;;;;;;6.72;6.15;;;;;;;13.00;31.53;96190.19;4943213;28;20101;-63
2021/04/15 09:13:31;;;;;;;7.10;6.43;;;;;;;13.68;30.84;96193.47;4949002;28;20024;-64
2021/04/15 09:16:18;;;;;;;8.32;6.28;;;;;;;13.55;29.59;96193.84;4949205;28;20128;-64
2021/04/15 09:19:08;;;;;;;7.18;6.45;;;;;;;13.65;31.08;96193.78;4946357;28;20139;-64
2021/04/15 09:21:48;;;;;;;9.57;6.90;;;;;;;13.66;29.90;96187.50;4942887;28;20043;-63
2021/04/15 09:24:34;;;;;;;9.10;7.05;;;;;;;14.16;30.10;96188.81;4947212;28;20031;-62
2021/04/15 09:27:18;;;;;;;;;;;;;;;14.14;29.69;96186.31;4948969;28;20365;-63
2021/04/15 09:30:01;;;;;;;9.15;7.30;;;;;;;14.04;30.62;96185.56;4945549;28;19974;-63
2021/04/15 09:32:37;;;;;;;8.20;7.40;;;;;;;14.18;30.16;96186.84;4947383;28;20027;-64
2021/04/15 09:35:14;;;;;;;7.90;7.10;;;;;;;14.41;30.17;96192.50;4957426;28;20023;-63
2021/04/15 09:38:07;;;;;;;7.78;6.97;;;;;;;14.67;28.13;96182.91;4953395;28;20027;-63
2021/04/15 09:41:01;;;;;;;7.45;6.47;;;;;;;13.97;28.58;96177.41;4948020;28;20033;-64
2021/04/15 09:43:42;;;;;;;9.18;7.05;;;;;;;13.71;28.78;96183.44;4956054;28;20446;-61
2021/04/15 09:46:19;;;;;;;9.27;7.30;;;;;;;14.29;28.57;96177.84;4960359;28;20045;-61
2021/04/15 09:48:59;;;;;;;9.00;7.28;;;;;;;13.99;28.45;96183.38;4959609;28;20101;-62
2021/04/15 09:51:48;;;;;;;7.53;6.88;;;;;;;14.22;28.63;96182.09;4959957;28;20039;-62
2021/04/15 09:54:45;;;;;;;8.07;7.28;;;;;;;13.90;28.42;96181.63;4958376;28;20162;-62
2021/04/15 09:57:29;;;;;;;6.90;6.30;;;;;;;14.08;29.18;96178.97;4952897;28;20027;-63
2021/04/15 10:00:28;;;;;;;11.65;7.03;;;;;;;13.98;30.12;96176.41;4957521;28;20464;-64
2021/04/15 10:03:13;;;;;;;8.15;7.47;;;;;;;14.20;27.86;96171.63;4959501;28;20031;-65
2021/04/15 10:05:54;;;;;;;7.68;6.88;;;;;;;13.39;29.94;96168.84;4960070;28;20043;-62
2021/04/15 10:08:55;;;;;;;7.63;6.93;;;;;;;13.31;30.93;96168.75;4948390;28;20056;-64
2021/04/15 10:11:23;;;;;;;8.55;7.70;;;;;;;13.39;30.39;96157.44;4947032;28;20024;-63
2021/04/15 10:13:51;;;;;;;8.25;7.47;;;;;;;13.64;29.64;96161.22;4946922;28;20102;-65
2021/04/15 10:16:37;;;;;;;7.57;6.88;;;;;;;13.95;29.64;96160.84;4950539;28;20483;-63
2021/04/15 10:19:32;;;;;;;7.72;7.07;;;;;;;14.16;30.07;96159.69;4945846;28;20031;-62
2021/04/15 10:22:27;;;;;;;8.27;7.47;;;;;;;14.70;29.51;96156.94;4946731;28;20505;-63
2021/04/15 10:25:00;;;;;;;9.90;7.82;;;;;;;14.47;29.01;96162.75;4949556;28;20039;-64
2021/04/15 10:27:46;;;;;;;8.13;7.43;;;;;;;15.12;28.30;96150.03;4944395;28;20044;-64
2021/04/15 10:30:38;;;;;;;12.77;9.02;;;;;;;14.61;28.56;96150.75;4945486;28;20094;-65
2021/04/15 10:33:32;;;;;;;7.60;6.90;;;;;;;14.95;28.43;96154.44;4943977;28;20031;-63
2021/04/15 10:36:33;;;;;;;8.23;7.53;;;;;;;14.99;26.85;96144.38;4953292;28;20028;-62
2021/04/15 10:39:29;;;;;;;11.18;7.00;;;;;;;14.59;28.33;96149.25;4945536;28;20035;-62
2021/04/15 10:42:34;;;;;;;7.72;7.13;;;;;;;14.30;29.04;96140.63;4960335;28;20046;-63
2021/04/15 10:45:29;;;;;;;8.82;8.07;;;;;;;14.22;28.70;96134.44;4944381;28;20024;-63
2021/04/15 10:48:14;;;;;;;8.57;7.75;;;;;;;14.10;29.17;96129.34;4940069;28;20031;-62
2021/04/15 10:50:55;;;;;;;8.40;7.60;;;;;;;13.63;29.17;96132.25;4952931;28;20170;-61
2021/04/15 10:53:50;;;;;;;10.20;7.97;;;;;;;13.86;29.20;96133.47;4949355;28;20027;-61
2021/04/15 10:56:25;;;;;;;8.35;7.57;;;;;;;14.88;28.32;96127.72;4950448;28;20028;-62
2021/04/15 10:58:54;;;;;;;9.25;8.35;;;;;;;15.29;28.30;96123.59;4952853;28;20070;-60
2021/04/15 11:01:34;;;;;;;9.30;7.25;;;;;;;15.76;27.67;96128.34;4952414;28;20020;-61
2021/04/15 11:04:08;;;;;;;7.70;7.07;;;;;;;16.03;27.31;96131.75;4958334;28;20031;-62
2021/04/15 11:06:39;;;;;;;8.00;6.60;;;;;;;16.72;24.46;96113.72;4953166;28;20023;-64
2021/04/15 11:09:18;;;;;;;7.88;7.18;;;;;;;15.99;26.30;96119.75;4958844;28;20038;-62
2021/04/15 11:12:05;;;;;;;9.45;7.35;;;;;;;16.37;25.83;96115.78;4947497;28;20024;-62
2021/04/15 11:14:39;;;;;;;7.78;7.00;;;;;;;15.74;24.90;96119.72;4957309;28;20035;-61
2021/04/15 11:17:26;;;;;;;7.65;7.03;;;;;;;15.37;24.56;96109.53;4955828;28;20161;-62
2021/04/15 11:20:19;;;;;;;7.78;6.68;;;;;;;15.06;25.34;96108.25;4957861;28;20039;-62
2021/04/15 11:23:09;;;;;;;7.00;6.40;;;;;;;15.66;26.26;96101.13;4958903;28;20022;-62
2021/04/15 11:25:47;;;;;;;7.20;6.60;;;;;;;15.36;25.35;96114.00;4958122;28;20042;-62
2021/04/15 11:28:16;;;;;;;12.13;7.18;;;;;;;15.38;25.36;96104.06;4949126;28;20023;-60
2021/04/15 11:30:55;;;;;;;6.82;6.20;;;;;;;16.07;24.79;96099.53;4952577;28;20035;-61
2021/04/15 11:33:59;;;;;;;7.35;6.55;;;;;;;16.57;22.46;96094.97;4958221;28;20031;-61
2021/04/15 11:36:29;;;;;;;7.30;6.60;;;;;;;16.58;23.80;96094.00;4958104;28;20042;-61
2021/04/15 11:39:04;;;;;;;7.63;7.03;;;;;;;16.33;23.76;96089.53;4946258;28;20035;-60
2021/04/15 11:41:46;;;;;;;7.90;7.18;;;;;;;16.54;26.01;96092.66;4945323;28;20019;-61
2021/04/15 11:44:24;;;;;;;7.28;6.40;;;;;;;16.67;24.91;96086.81;4947916;28;20043;-61
2021/04/15 11:46:53;;;;;;;7.22;6.60;;;;;;;16.35;25.16;96081.38;4955307;28;20055;-62
2021/04/15 11:49:19;;;;;;;7.28;6.57;;;;;;;16.45;24.02;96091.84;4942351;28;20039;-61
2021/04/15 11:51:54;;;;;;;7.18;6.57;;;;;;;17.28;23.17;96084.44;4942402;28;20043;-61
2021/04/15 11:54:38;;;;;;;6.80;6.30;;;;;;;16.78;24.10;96085.59;4945361;28;20027;-61
2021/04/15 11:57:19;;;;;;;6.27;5.77;;;;;;;17.12;23.50;96085.34;4949209;28;20055;-61
2021/04/15 11:59:57;;;;;;;6.93;6.00;;;;;;;17.28;22.87;96072.97;4957274;28;20051;-61
2021/04/15 12:02:31;;;;;;;7.55;6.20;;;;;;;16.74;23.97;96090.47;4945519;28;20051;-61
2021/04/15 12:05:29;;;;;;;6.90;6.30;;;;;;;16.92;23.66;96078.78;4946824;28;20031;-61
2021/04/15 12:07:56;;;;;;;6.43;5.90;;;;;;;17.60;22.13;96073.78;4942601;28;20038;-62
2021/04/15 12:10:26;;;;;;;5.97;5.38;;;;;;;16.99;21.76;96077.09;4949286;28;20027;-61
2021/04/15 12:12:57;;;;;;;6.43;5.82;;;;;;;16.23;23.00;96077.44;4949764;28;20412;-60
2021/04/15 12:15:30;;;;;;;6.90;5.30;;;;;;;17.23;20.63;96068.16;4953726;28;20480;-61
2021/04/15 12:18:24;;;;;;;5.50;5.10;;;;;;;17.32;21.75;96067.13;4951269;28;20459;-61
2021/04/15 12:21:11;;;;;;;6.25;5.65;;;;;;;16.84;22.10;96069.81;4945323;28;20031;-62
2021/04/15 12:23:48;;;;;;;5.63;5.15;;;;;;;15.77;22.77;96073.44;4955687;28;20634;-61
2021/04/15 12:26:25;;;;;;;5.90;5.40;;;;;;;14.37;24.16;96071.13;4956201;28;20035;-62